Flight Track Log - Related Links

Times and Time Zones

All times are in EDT time to prevent confusion due to time zone crossing. See the UAL1649 flight status page for this flight to view local times or setup timezone preferences in your user account.

Time Position Orientation Groundspeed Altitude Reporting Facility
EDT Latitude Longitude Course Direction KTS MPH feet Rate Location/Type
Fri 10:16:06 PM 42.0260 -87.8930 37° Northeast 181 208 2,400  Level FlightAware ADS-B
Fri 10:16:21 PM 42.0370 -87.9080 315° West 212 244 3,000 2,400 Climbing FlightAware ADS-B
Fri 10:16:51 PM 42.0590 -87.9380 315° West 235 270 4,200 2,291 Climbing FlightAware ADS-B
Fri 10:17:16 PM 42.0770 -87.9640 313° West 259 298 5,100 2,700 Climbing FlightAware ADS-B
Fri 10:17:31 PM 42.0910 -87.9840 313° West 268 308 6,000 3,600 Climbing FlightAware ADS-B
Fri 10:18:01 PM 42.1150 -88.0170 314° West 269 310 7,800 3,943 Climbing FlightAware ADS-B
Fri 10:18:06 PM 42.1200 -88.0280 302° West 272 313 8,300 3,600 Climbing FlightAware ADS-B
Fri 10:18:21 PM 42.1240 -88.0460 287° West 275 316 9,000 3,429 Climbing FlightAware ADS-B
Fri 10:18:41 PM 42.1140 -88.0900 253° West 296 341 10,300 2,769 Climbing FlightAware ADS-B
Fri 10:19:26 PM 42.0860 -88.1670 244° Southwest 331 381 12,000 2,329 Climbing FlightAware ADS-B
Fri 10:20:06 PM 42.0530 -88.2460 241° Southwest 362 417 13,600 2,175 Climbing FlightAware ADS-B
Fri 10:20:46 PM 42.0180 -88.3280 240° Southwest 391 450 14,900 2,541 Climbing FlightAware ADS-B
Fri 10:21:31 PM 41.9780 -88.4190 239° Southwest 390 449 17,200 2,965 Climbing FlightAware ADS-B
Fri 10:22:11 PM 41.9430 -88.5040 241° Southwest 390 449 19,100 2,550 Climbing FlightAware ADS-B
Fri 10:22:51 PM 41.9290 -88.6000 259° West 396 456 20,600 2,259 Climbing FlightAware ADS-B
Fri 10:23:36 PM 41.9170 -88.7110 262° West 401 461 22,300 1,976 Climbing FlightAware ADS-B
Fri 10:24:16 PM 41.9070 -88.8090 262° West 414 476 23,400 1,425 Climbing FlightAware ADS-B
Fri 10:24:56 PM 41.8960 -88.9120 262° West 430 495 24,200 1,341 Climbing FlightAware ADS-B
Fri 10:25:41 PM 41.8860 -89.0350 264° West 441 507 25,300 1,482 Climbing FlightAware ADS-B
Fri 10:26:21 PM 41.8850 -89.1440 269° West 447 514 26,300 1,482 Climbing FlightAware ADS-B
Fri 10:27:06 PM 41.8830 -89.2680 269° West 452 520 27,400 1,835 Climbing FlightAware ADS-B
Fri 10:27:46 PM 41.8810 -89.3820 269° West 444 511 28,900 2,025 Climbing FlightAware ADS-B
Fri 10:28:26 PM 41.8800 -89.4860 269° West 439 505 30,100 1,835 Climbing FlightAware ADS-B
Fri 10:29:11 PM 41.8770 -89.6130 268° West 433 498 31,500 1,694 Climbing FlightAware ADS-B
Fri 10:29:51 PM 41.8750 -89.7180 269° West 432 497 32,500 1,500 Climbing FlightAware ADS-B
Fri 10:30:31 PM 41.8730 -89.8260 269° West 427 491 33,500 1,553 Climbing FlightAware ADS-B
Fri 10:31:16 PM 41.8700 -89.9390 268° West 421 484 34,700 1,482 Climbing FlightAware ADS-B
Fri 10:31:56 PM 41.8680 -90.0490 269° West 417 480 35,600 1,129 Climbing FlightAware ADS-B
Fri 10:32:41 PM 41.8650 -90.1600 268° West 419 482 36,300 1,000 Climbing FlightAware ADS-B
Fri 10:33:26 PM 41.8630 -90.2780 269° West 417 480 37,100 918 Climbing FlightAware ADS-B
Fri 10:34:06 PM 41.8600 -90.3790 268° West 417 480 37,600 675 Climbing FlightAware ADS-B
Fri 10:34:46 PM 41.8570 -90.4840 268° West 419 482 38,000 282 Climbing FlightAware ADS-B
Fri 10:35:31 PM 41.8540 -90.5970 268° West 422 486 38,000  Level FlightAware ADS-B
Fri 10:36:11 PM 41.8510 -90.7050 268° West 423 487 38,000  Level FlightAware ADS-B
Fri 10:36:51 PM 41.8480 -90.8090 268° West 423 487 38,000  Level FlightAware ADS-B
Fri 10:37:31 PM 41.8450 -90.9070 268° West 423 487 38,000  Level FlightAware ADS-B
Fri 10:38:16 PM 41.8420 -91.0250 268° West 423 487 38,000  Level FlightAware ADS-B
Fri 10:39:01 PM 41.8380 -91.1520 268° West 423 487 38,000  Level FlightAware ADS-B
Fri 10:39:41 PM 41.8340 -91.2550 267° West 423 487 38,000  Level FlightAware ADS-B
Fri 10:40:26 PM 41.8300 -91.3700 267° West 424 488 38,000  Level FlightAware ADS-B
Fri 10:41:06 PM 41.8260 -91.4810 267° West 425 489 38,000  Level FlightAware ADS-B
Fri 10:41:51 PM 41.8220 -91.5960 267° West 426 490 38,000  Level FlightAware ADS-B
Fri 10:42:31 PM 41.8180 -91.7020 267° West 427 491 38,000  Level FlightAware ADS-B
Fri 10:43:11 PM 41.8140 -91.8060 267° West 427 491 38,000  Level FlightAware ADS-B
Fri 10:43:51 PM 41.8100 -91.9130 267° West 427 491 38,000  Level FlightAware ADS-B
Fri 10:44:36 PM 41.8050 -92.0360 267° West 427 491 38,000  Level FlightAware ADS-B
Fri 10:45:21 PM 41.8010 -92.1450 267° West 427 491 38,000  Level FlightAware ADS-B
Fri 10:46:01 PM 41.7960 -92.2550 267° West 425 489 38,000  Level FlightAware ADS-B
Fri 10:46:41 PM 41.7920 -92.3600 267° West 423 487 38,000  Level FlightAware ADS-B
Fri 10:47:26 PM 41.7870 -92.4790 267° West 420 483 38,000  Level FlightAware ADS-B
Fri 10:48:06 PM 41.7820 -92.5850 266° West 418 481 38,000  Level FlightAware ADS-B
Fri 10:48:46 PM 41.7770 -92.6860 266° West 417 480 38,000  Level FlightAware ADS-B
Fri 10:49:31 PM 41.7720 -92.7990 267° West 417 480 38,000  Level FlightAware ADS-B
Fri 10:50:11 PM 41.7670 -92.9010 266° West 418 481 38,000  Level FlightAware ADS-B
Fri 10:50:56 PM 41.7620 -93.0220 267° West 421 484 38,000  Level FlightAware ADS-B
Fri 10:51:36 PM 41.7560 -93.1270 266° West 422 486 38,000  Level FlightAware ADS-B
Fri 10:52:21 PM 41.7500 -93.2430 266° West 422 486 38,000  Level FlightAware ADS-B
Fri 10:53:01 PM 41.7450 -93.3450 266° West 421 484 38,000  Level FlightAware ADS-B
Fri 10:53:41 PM 41.7400 -93.4490 266° West 420 483 38,000  Level FlightAware ADS-B
Fri 10:54:26 PM 41.7340 -93.5640 266° West 418 481 38,000  Level FlightAware ADS-B
Fri 10:55:06 PM 41.7280 -93.6700 266° West 416 479 38,000  Level FlightAware ADS-B
Fri 10:55:51 PM 41.7220 -93.7840 266° West 415 478 38,000  Level FlightAware ADS-B
Fri 10:56:31 PM 41.7160 -93.8840 265° West 415 478 38,000  Level FlightAware ADS-B
Fri 10:57:11 PM 41.7100 -93.9860 266° West 415 478 38,000  Level FlightAware ADS-B
Fri 10:57:56 PM 41.7030 -94.1050 266° West 415 478 38,000  Level FlightAware ADS-B
Fri 10:58:36 PM 41.6970 -94.2080 266° West 416 479 38,000  Level FlightAware ADS-B
Fri 10:59:16 PM 41.6910 -94.3090 265° West 417 480 38,000  Level FlightAware ADS-B
Fri 11:00:01 PM 41.6840 -94.4210 265° West 419 482 38,000  Level FlightAware ADS-B
Fri 11:00:41 PM 41.6780 -94.5260 266° West 420 483 38,000  Level FlightAware ADS-B
Fri 11:01:26 PM 41.6710 -94.6420 265° West 422 486 38,000  Level FlightAware ADS-B
Fri 11:02:01 PM 41.6650 -94.7300 265° West 424 488 38,000  Level FlightAware ADS-B
Fri 11:02:46 PM 41.6580 -94.8440 265° West 426 490 38,000  Level FlightAware ADS-B
Fri 11:03:31 PM 41.6500 -94.9700 265° West 428 493 38,000  Level FlightAware ADS-B
Fri 11:04:21 PM 41.6420 -95.0920 265° West 428 493 38,000  Level FlightAware ADS-B
Fri 11:05:06 PM 41.6330 -95.2200 265° West 431 496 38,000  Level FlightAware ADS-B
Fri 11:05:41 PM 41.6260 -95.3110 264° West 430 495 38,000  Level FlightAware ADS-B
Fri 11:06:31 PM 41.6170 -95.4450 265° West 431 496 38,000  Level FlightAware ADS-B
Fri 11:07:11 PM 41.6100 -95.5420 265° West 431 496 38,000  Level FlightAware ADS-B
Fri 11:07:51 PM 41.6030 -95.6320 264° West 431 496 38,000  Level FlightAware ADS-B
Fri 11:08:41 PM 41.5940 -95.7450 264° West 431 496 38,000  Level FlightAware ADS-B
Fri 11:09:21 PM 41.5870 -95.8350 264° West 431 496 38,000  Level FlightAware ADS-B
Fri 11:10:01 PM 41.5800 -95.9250 264° West 431 496 38,000  Level FlightAware ADS-B
Fri 11:10:41 PM 41.5730 -96.0150 264° West 431 496 38,000  Level FlightAware ADS-B
Fri 11:11:21 PM 41.5660 -96.1050 264° West 431 496 38,000  Level FlightAware ADS-B
Fri 11:12:01 PM 41.5580 -96.1950 263° West 431 496 38,000  Level FlightAware ADS-B
Fri 11:12:51 PM 41.5500 -96.3080 265° West 431 496 38,000  Level FlightAware ADS-B
Fri 11:13:31 PM 41.5430 -96.3980 264° West 431 496 38,000  Level FlightAware ADS-B
Fri 11:14:11 PM 41.5350 -96.4880 263° West 431 496 38,000  Level FlightAware ADS-B
Fri 11:14:51 PM 41.5280 -96.5780 264° West 431 496 38,000  Level FlightAware ADS-B
Fri 11:15:31 PM 41.5210 -96.6680 264° West 431 496 38,000  Level FlightAware ADS-B
Fri 11:16:21 PM 41.5120 -96.7810 264° West 431 496 38,000  Level FlightAware ADS-B
Fri 11:17:06 PM 41.4883 -97.0989 264° West 436 502 38,000  Level Minneapolis Center
Fri 11:18:07 PM 41.4758 -97.2611 264° West 439 505 38,000  Level Minneapolis Center
Fri 11:19:08 PM 41.4589 -97.4539 263° West 438 504 38,000  Level Minneapolis Center
Fri 11:20:09 PM 41.4436 -97.6131 263° West 436 502 38,000  Level Minneapolis Center
Fri 11:21:10 PM 41.4292 -97.7731 263° West 435 501 38,000  Level Minneapolis Center
Fri 11:22:12 PM 41.4150 -97.9325 263° West 435 501 38,000  Level Minneapolis Center
Fri 11:23:13 PM 41.4003 -98.0931 263° West 436 502 38,000  Level Minneapolis Center
Fri 11:24:14 PM 41.3850 -98.2683 263° West 437 503 38,000  Level Minneapolis Center
Fri 11:25:15 PM 41.3731 -98.4275 264° West 436 502 38,000  Level Minneapolis Center
Fri 11:26:17 PM 41.3667 -98.5756 267° West 437 503 38,000  Level Minneapolis Center
Fri 11:27:18 PM 41.3583 -98.7361 266° West 437 503 38,000  Level Minneapolis Center
Fri 11:28:19 PM 41.3525 -98.8975 267° West 437 503 38,000  Level Minneapolis Center
Fri 11:29:20 PM 41.3450 -99.0594 267° West 438 504 38,000  Level Minneapolis Center
Fri 11:30:21 PM 41.3383 -99.2269 267° West 439 505 38,000  Level Minneapolis Center
Fri 11:31:33 PM 41.3283 -99.4206 266° West 440 506 38,000  Level Denver Center
Fri 11:32:34 PM 41.3189 -99.6069 266° West 442 509 38,000  Level Denver Center
Fri 11:33:35 PM 41.3125 -99.7367 266° West 442 509 38,000  Level Denver Center
Fri 11:34:37 PM 41.3019 -99.9431 266° West 441 507 38,000  Level Denver Center
Fri 11:35:38 PM 41.2936 -100.0997 266° West 444 511 38,000  Level Denver Center
Fri 11:41:44 PM 41.2323 -101.1050 266° West 441 507 38,000  Level FlightAware ADS-B
Fri 11:42:14 PM 41.2272 -101.1860 265° West 443 510 38,000  Level FlightAware ADS-B
Fri 11:42:45 PM 41.2219 -101.2690 265° West 445 512 38,000  Level FlightAware ADS-B
Fri 11:43:15 PM 41.2165 -101.3510 265° West 446 513 38,000  Level FlightAware ADS-B
Fri 11:43:46 PM 41.2111 -101.4340 265° West 447 514 38,000  Level FlightAware ADS-B
Fri 11:44:17 PM 41.2054 -101.5190 265° West 448 516 38,000  Level FlightAware ADS-B
Fri 11:44:52 PM 41.1989 -101.6160 265° West 449 517 38,000  Level FlightAware ADS-B
Fri 11:45:22 PM 41.1931 -101.6980 265° West 449 517 38,000  Level FlightAware ADS-B
Fri 11:45:53 PM 41.1872 -101.7820 265° West 450 518 38,000  Level FlightAware ADS-B
Fri 11:46:23 PM 41.1812 -101.8650 265° West 451 519 38,000  Level FlightAware ADS-B
Fri 11:46:56 PM 41.1748 -101.9550 265° West 452 520 38,000  Level FlightAware ADS-B
Fri 11:47:26 PM 41.1688 -102.0380 265° West 452 520 38,000  Level FlightAware ADS-B
Fri 11:47:57 PM 41.1628 -102.1220 265° West 451 519 38,000  Level FlightAware ADS-B
Fri 11:48:27 PM 41.1566 -102.2070 264° West 452 520 38,000  Level FlightAware ADS-B
Fri 11:48:57 PM 41.1505 -102.2890 264° West 452 520 38,000  Level FlightAware ADS-B
Fri 11:49:29 PM 41.1440 -102.3770 264° West 452 520 38,000  Level FlightAware ADS-B
Fri 11:50:01 PM 41.1374 -102.4640 264° West 451 519 38,000  Level FlightAware ADS-B
Fri 11:50:32 PM 41.1309 -102.5480 264° West 452 520 38,000  Level FlightAware ADS-B
Fri 11:51:02 PM 41.1244 -102.6320 264° West 453 521 38,000  Level FlightAware ADS-B
Fri 11:51:33 PM 41.1178 -102.7170 264° West 453 521 38,000  Level FlightAware ADS-B
Fri 11:52:04 PM 41.1112 -102.8020 264° West 453 521 38,000  Level FlightAware ADS-B
Fri 11:52:34 PM 41.1045 -102.8870 264° West 454 522 38,000  Level FlightAware ADS-B
Fri 11:53:01 PM 41.0986 -102.9590 264° West 454 522 38,000  Level FlightAware ADS-B
Fri 11:53:16 PM 41.0932 -103.0010 260° West 456 525 38,000  Level FlightAware ADS-B
Fri 11:53:46 PM 41.0782 -103.0830 256° West 457 526 38,000  Level FlightAware ADS-B
Fri 11:54:16 PM 41.0632 -103.1640 256° West 456 525 38,000  Level FlightAware ADS-B
Fri 11:54:47 PM 41.0473 -103.2500 256° West 456 525 38,000  Level FlightAware ADS-B
Fri 11:55:19 PM 41.0315 -103.3340 256° West 457 526 38,000  Level FlightAware ADS-B
Fri 11:55:49 PM 41.0162 -103.4160 256° West 457 526 38,000  Level FlightAware ADS-B
Fri 11:56:19 PM 41.0007 -103.4980 256° West 458 527 38,000  Level FlightAware ADS-B
Fri 11:56:49 PM 40.9852 -103.5800 256° West 458 527 38,000  Level FlightAware ADS-B
Fri 11:57:19 PM 40.9696 -103.6610 256° West 459 528 38,000  Level FlightAware ADS-B
Fri 11:57:50 PM 40.9540 -103.7440 256° West 459 528 38,000  Level FlightAware ADS-B
Fri 11:58:17 PM 40.9398 -103.8180 256° West 461 531 38,000  Level FlightAware ADS-B
Fri 11:58:49 PM 40.9235 -103.9030 256° West 460 529 38,000  Level FlightAware ADS-B
Fri 11:59:19 PM 40.9075 -103.9860 256° West 460 529 38,000  Level FlightAware ADS-B
Fri 11:59:49 PM 40.8913 -104.0690 256° West 462 532 38,000  Level FlightAware ADS-B
Sat 12:00:20 AM 40.8753 -104.1510 256° West 462 532 38,000  Level FlightAware ADS-B
Sat 12:00:50 AM 40.8592 -104.2330 255° West 464 534 38,000  Level FlightAware ADS-B
Sat 12:01:20 AM 40.8428 -104.3160 255° West 464 534 38,000  Level FlightAware ADS-B
Sat 12:01:50 AM 40.8269 -104.3980 256° West 465 535 38,000  Level FlightAware ADS-B
Sat 12:02:21 AM 40.8104 -104.4820 255° West 464 534 38,000  Level FlightAware ADS-B
Sat 12:02:51 AM 40.7938 -104.5640 255° West 465 535 38,000  Level FlightAware ADS-B
Sat 12:03:21 AM 40.7775 -104.6460 255° West 465 535 38,000  Level FlightAware ADS-B
Sat 12:03:51 AM 40.7611 -104.7280 255° West 464 534 38,000  Level FlightAware ADS-B
Sat 12:04:34 AM 40.7377 -104.8440 255° West 465 535 38,000  Level FlightAware ADS-B
Sat 12:05:07 AM 40.7195 -104.9340 255° West 465 535 38,000  Level FlightAware ADS-B
Sat 12:05:37 AM 40.7028 -105.0160 255° West 464 534 38,000  Level FlightAware ADS-B
Sat 12:06:07 AM 40.6857 -105.1000 255° West 463 533 38,000  Level FlightAware ADS-B
Sat 12:06:38 AM 40.6687 -105.1830 255° West 462 532 38,000  Level FlightAware ADS-B
Sat 12:07:08 AM 40.6518 -105.2650 255° West 461 531 38,000  Level FlightAware ADS-B
Sat 12:07:38 AM 40.6349 -105.3460 255° West 463 533 38,000  Level FlightAware ADS-B
Sat 12:08:16 AM 40.6139 -105.4480 255° West 465 535 38,000  Level FlightAware ADS-B
Sat 12:08:47 AM 40.5960 -105.5340 255° West 467 537 38,000  Level FlightAware ADS-B
Sat 12:09:46 AM 40.5640 -105.6860 255° West 467 537 38,000  Level FlightAware ADS-B
Sat 12:10:12 AM 40.5475 -105.7660 255° West 467 537 38,000  Level FlightAware ADS-B
Sat 12:10:46 AM 40.5277 -105.8590 254° West 467 537 38,000  Level FlightAware ADS-B
Sat 12:11:20 AM 40.5081 -105.9510 254° West 468 539 38,000  Level FlightAware ADS-B
Sat 12:12:36 AM 40.4650 -106.1540 254° West 466 536 38,000  Level FlightAware ADS-B
Sat 12:13:16 AM 40.4410 -106.2640 254° West 467 537 38,000  Level FlightAware ADS-B
Sat 12:13:56 AM 40.4180 -106.3710 254° West 467 537 38,000  Level FlightAware ADS-B
Sat 12:14:41 AM 40.3930 -106.4830 254° West 466 536 38,000  Level FlightAware ADS-B
Sat 12:15:36 AM 40.3620 -106.6270 254° West 461 531 38,000  Level FlightAware ADS-B
Sat 12:16:16 AM 40.3420 -106.7180 254° West 461 531 38,000  Level FlightAware ADS-B
Sat 12:16:56 AM 40.3220 -106.8100 254° West 461 531 38,000  Level FlightAware ADS-B
Sat 12:17:36 AM 40.3020 -106.9010 254° West 461 531 38,000  Level FlightAware ADS-B
Sat 12:18:26 AM 40.2770 -107.0150 254° West 461 531 38,000  Level FlightAware ADS-B
Sat 12:19:06 AM 40.2360 -107.1890 253° West 453 521 38,000  Level FlightAware ADS-B
Sat 12:19:46 AM 40.2130 -107.2940 254° West 452 520 38,000  Level FlightAware ADS-B
Sat 12:20:31 AM 40.1850 -107.4150 253° West 453 521 38,000  Level FlightAware ADS-B
Sat 12:21:11 AM 40.1610 -107.5190 253° West 454 522 38,000  Level FlightAware ADS-B
Sat 12:21:56 AM 40.1350 -107.6350 254° West 455 524 38,000  Level FlightAware ADS-B
Sat 12:26:31 AM 40.0030 -108.3610 257° West 460 529 38,000  Level FlightAware ADS-B
Sat 12:27:16 AM 39.9850 -108.4830 259° West 462 532 38,000  Level FlightAware ADS-B
Sat 12:27:56 AM 39.9680 -108.5970 259° West 462 532 38,000  Level FlightAware ADS-B
Sat 12:28:41 AM 39.9490 -108.7200 259° West 460 529 38,000  Level FlightAware ADS-B
Sat 12:29:21 AM 39.9310 -108.8350 258° West 459 528 38,000  Level FlightAware ADS-B
Sat 12:30:46 AM 39.8970 -109.0560 259° West 457 526 38,000  Level FlightAware ADS-B
Sat 12:31:26 AM 39.8800 -109.1630 258° West 457 526 38,000  Level FlightAware ADS-B
Sat 12:32:11 AM 39.8610 -109.2840 258° West 456 525 38,000  Level FlightAware ADS-B
Sat 12:32:51 AM 39.8420 -109.4000 258° West 456 525 38,000  Level FlightAware ADS-B
Sat 12:33:36 AM 39.8230 -109.5210 258° West 456 525 38,000  Level FlightAware ADS-B
Sat 12:34:16 AM 39.8070 -109.6200 258° West 457 526 38,000  Level FlightAware ADS-B
Sat 12:34:56 AM 39.7890 -109.7350 259° West 458 527 38,000  Level FlightAware ADS-B
Sat 12:35:41 AM 39.7700 -109.8480 258° West 459 528 38,000  Level FlightAware ADS-B
Sat 12:36:16 AM 39.7550 -109.9420 258° West 459 528 38,000  Level FlightAware ADS-B
Sat 12:37:06 AM 39.7330 -110.0750 258° West 459 528 38,000  Level FlightAware ADS-B
Sat 12:37:46 AM 39.7130 -110.1910 257° West 458 527 38,000  Level FlightAware ADS-B
Sat 12:38:26 AM 39.6960 -110.2980 258° West 457 526 38,000  Level FlightAware ADS-B
Sat 12:39:21 AM 39.6720 -110.4400 258° West 457 526 38,000  Level FlightAware ADS-B
Sat 12:40:06 AM 39.6510 -110.5590 257° West 458 527 38,000  Level FlightAware ADS-B
Sat 12:40:46 AM 39.6340 -110.6600 258° West 463 533 38,000  Level FlightAware ADS-B
Sat 12:41:31 AM 39.6110 -110.7970 258° West 473 544 38,000  Level FlightAware ADS-B
Sat 12:42:06 AM 39.5950 -110.8920 258° West 475 547 38,000  Level FlightAware ADS-B
Sat 12:42:46 AM 39.5760 -110.9980 257° West 476 548 38,000  Level FlightAware ADS-B
Sat 12:43:36 AM 39.5510 -111.1380 257° West 478 550 38,000  Level FlightAware ADS-B
Sat 12:44:16 AM 39.5300 -111.2560 257° West 479 551 38,000  Level FlightAware ADS-B
Sat 12:45:01 AM 39.5080 -111.3830 257° West 480 552 38,000  Level FlightAware ADS-B
Sat 12:45:41 AM 39.4880 -111.4950 257° West 481 554 38,000  Level FlightAware ADS-B
Sat 12:46:31 AM 39.4640 -111.6250 257° West 481 554 38,000  Level FlightAware ADS-B
Sat 12:47:21 AM 39.4410 -111.7440 256° West 481 554 38,000  Level FlightAware ADS-B
Sat 12:48:01 AM 39.4230 -111.8390 256° West 481 554 38,000  Level FlightAware ADS-B
Sat 12:48:41 AM 39.4040 -111.9340 256° West 481 554 38,000  Level FlightAware ADS-B
Sat 12:49:21 AM 39.3860 -112.0290 256° West 481 554 38,000  Level FlightAware ADS-B
Sat 12:50:01 AM 39.3680 -112.1240 256° West 481 554 38,000  Level FlightAware ADS-B
Sat 12:50:51 AM 39.3450 -112.2420 256° West 481 554 38,000  Level FlightAware ADS-B
Sat 12:51:31 AM 39.3270 -112.3370 256° West 481 554 38,000  Level FlightAware ADS-B
Sat 12:52:11 AM 39.3080 -112.4320 256° West 481 554 38,000  Level FlightAware ADS-B
Sat 12:52:51 AM 39.2900 -112.5270 256° West 481 554 38,000  Level FlightAware ADS-B
Sat 12:53:41 AM 39.2670 -112.6460 256° West 481 554 38,000  Level FlightAware ADS-B
Sat 12:54:21 AM 39.2490 -112.7400 256° West 481 554 38,000  Level FlightAware ADS-B
Sat 12:55:01 AM 39.2300 -112.8350 256° West 481 554 38,000  Level FlightAware ADS-B
Sat 12:55:41 AM 39.2120 -112.9300 256° West 481 554 38,000  Level FlightAware ADS-B
Sat 12:56:56 AM 39.1094 -113.3517 256° West 476 548 38,000  Level Salt Lake Center
Sat 12:57:57 AM 39.0714 -113.5150 253° West 480 552 38,000  Level Salt Lake Center
Sat 12:58:58 AM 39.0325 -113.6792 253° West 483 556 38,000  Level Salt Lake Center
Sat 12:59:59 AM 38.9931 -113.8447 253° West 485 558 38,000  Level Salt Lake Center
Sat 01:01:00 AM 38.9464 -114.0397 253° West 481 554 38,000  Level Salt Lake Center
Sat 01:02:01 AM 38.9072 -114.2014 253° West 478 550 38,000  Level Salt Lake Center
Sat 01:03:02 AM 38.8683 -114.3633 253° West 479 551 38,000  Level Salt Lake Center
Sat 01:04:03 AM 38.8300 -114.5236 253° West 475 547 38,000  Level Salt Lake Center
Sat 01:05:04 AM 38.7903 -114.6850 253° West 478 550 38,000  Level Salt Lake Center
Sat 01:06:05 AM 38.7503 -114.8464 252° West 478 550 38,000  Level Salt Lake Center
Sat 01:07:06 AM 38.7097 -115.0092 252° West 482 555 38,000  Level Salt Lake Center
Sat 01:08:07 AM 38.6667 -115.1719 251° West 486 559 38,000  Level Salt Lake Center
Sat 01:09:08 AM 38.6258 -115.3328 252° West 481 554 38,000  Level Salt Lake Center
Sat 01:10:09 AM 38.5861 -115.5047 254° West 471 542 38,000  Level Salt Lake Center
Sat 01:11:10 AM 38.5444 -115.6639 252° West 473 544 38,000  Level Salt Lake Center
Sat 01:12:11 AM 38.5042 -115.8228 252° West 472 543 38,000  Level Salt Lake Center
Sat 01:13:12 AM 38.4619 -115.9806 251° West 469 540 38,000  Level Salt Lake Center
Sat 01:14:05 AM 38.4211 -116.1386 252° West 470 541 38,000  Level Oakland Center
Sat 01:15:06 AM 38.3806 -116.2947 252° West 465 535 38,000  Level Oakland Center
Sat 01:16:06 AM 38.3392 -116.4511 251° West 464 534 38,000  Level Oakland Center
Sat 01:17:07 AM 38.2978 -116.6058 251° West 463 533 38,000  Level Oakland Center
Sat 01:18:08 AM 38.2561 -116.7614 251° West 464 534 38,000  Level Oakland Center
Sat 01:19:09 AM 38.2150 -116.9156 251° West 462 532 38,000  Level Oakland Center
Sat 01:20:10 AM 38.1736 -117.0719 251° West 467 537 38,000  Level Oakland Center
Sat 01:21:11 AM 38.1303 -117.2278 251° West 473 544 38,000  Level Oakland Center
Sat 01:22:12 AM 38.0942 -117.3792 253° West 482 555 38,000  Level Oakland Center
Sat 01:23:12 AM 38.0500 -117.5703 254° West 473 544 38,000  Level Oakland Center
Sat 01:24:13 AM 38.0119 -117.7308 253° West 475 547 38,000  Level Oakland Center
Sat 01:30:06 AM 37.9050 -118.6800 253° West 456 525 38,000  Level FlightAware ADS-B
Sat 01:30:46 AM 37.8940 -118.7840 262° West 454 522 38,000  Level FlightAware ADS-B
Sat 01:31:21 AM 37.8830 -118.8690 261° West 454 522 38,000  Level FlightAware ADS-B
Sat 01:32:06 AM 37.8690 -119.0020 262° West 452 520 38,000  Level FlightAware ADS-B
Sat 01:32:51 AM 37.8560 -119.1120 262° West 453 521 38,000  Level FlightAware ADS-B
Sat 01:33:36 AM 37.8410 -119.2400 262° West 454 522 38,000  Level FlightAware ADS-B
Sat 01:34:16 AM 37.8290 -119.3440 262° West 451 519 38,000  Level FlightAware ADS-B
Sat 01:34:56 AM 37.8170 -119.4460 262° West 450 518 38,000  Level FlightAware ADS-B
Sat 01:35:41 AM 37.8030 -119.5630 261° West 451 519 38,000  Level FlightAware ADS-B
Sat 01:36:21 AM 37.7910 -119.6650 262° West 452 520 38,000  Level FlightAware ADS-B
Sat 01:37:06 AM 37.7760 -119.7860 261° West 452 520 38,000 -141 Level FlightAware ADS-B
Sat 01:37:46 AM 37.7630 -119.8920 261° West 451 519 37,800 -635 Descending FlightAware ADS-B
Sat 01:38:31 AM 37.7490 -120.0040 261° West 453 521 37,100 -1,624 Descending FlightAware ADS-B
Sat 01:39:11 AM 37.7360 -120.1130 261° West 451 519 35,500 -2,700 Descending FlightAware ADS-B
Sat 01:39:51 AM 37.7240 -120.2130 261° West 456 525 33,500 -3,176 Descending FlightAware ADS-B
Sat 01:40:36 AM 37.7080 -120.3340 261° West 457 526 31,000 -2,965 Descending FlightAware ADS-B
Sat 01:41:16 AM 37.6950 -120.4380 261° West 447 514 29,300 -2,471 Descending FlightAware ADS-B
Sat 01:42:01 AM 37.6800 -120.5510 261° West 436 502 27,500 -2,329 Descending FlightAware ADS-B
Sat 01:42:41 AM 37.6690 -120.6380 261° West 427 491 26,000 -2,475 Descending FlightAware ADS-B
Sat 01:43:21 AM 37.6550 -120.7480 261° West 419 482 24,200 -2,471 Descending FlightAware ADS-B
Sat 01:44:06 AM 37.6410 -120.8570 261° West 408 470 22,500 -2,329 Descending FlightAware ADS-B
Sat 01:44:46 AM 37.6280 -120.9500 260° West 397 457 20,900 -2,188 Descending FlightAware ADS-B
Sat 01:45:31 AM 37.6170 -121.0480 262° West 386 444 19,400 -2,047 Descending FlightAware ADS-B
Sat 01:46:11 AM 37.6070 -121.1370 262° West 373 429 18,000 -2,147 Descending FlightAware ADS-B
Sat 01:47:06 AM 37.5940 -121.2530 262° West 367 422 16,000 -2,211 Descending FlightAware ADS-B
Sat 01:47:46 AM 37.5850 -121.3340 262° West 362 417 14,500 -2,259 Descending FlightAware ADS-B
Sat 01:48:31 AM 37.5730 -121.4310 261° West 356 410 12,800 -2,100 Descending FlightAware ADS-B
Sat 01:49:06 AM 37.5660 -121.4980 263° West 350 403 11,700 -1,575 Descending FlightAware ADS-B
Sat 01:49:51 AM 37.5560 -121.5860 262° West 314 361 10,700 -733 Descending FlightAware ADS-B
Sat 01:50:36 AM 37.5490 -121.6600 263° West 272 313 10,600 -400 Descending FlightAware ADS-B
Sat 01:50:51 AM 37.5580 -121.6820 297° West 261 300 10,300 -1,333 Descending FlightAware ADS-B
Sat 01:51:21 AM 37.5790 -121.7190 306° West 257 296 9,600 -1,333 Descending FlightAware ADS-B
Sat 01:51:36 AM 37.5870 -121.7350 302° West 254 292 9,300 -900 Descending FlightAware ADS-B
Sat 01:52:01 AM 37.6050 -121.7670 305° West 252 290 9,000 -545 Descending FlightAware ADS-B
Sat 01:52:31 AM 37.6250 -121.8030 305° West 253 291 8,800 -218 Descending FlightAware ADS-B
Sat 01:52:56 AM 37.6420 -121.8330 306° West 253 291 8,800  Level FlightAware ADS-B
Sat 01:53:11 AM 37.6490 -121.8520 295° West 254 292 8,800  Level FlightAware ADS-B
Sat 01:53:41 AM 37.6390 -121.8930 253° West 251 289 8,800  Level FlightAware ADS-B
Sat 01:53:56 AM 37.6250 -121.9040 212° Southwest 247 284 8,800  Level FlightAware ADS-B
Sat 01:54:06 AM 37.6140 -121.9060 188° South 245 282 8,800  Level FlightAware ADS-B
Sat 01:54:36 AM 37.5850 -121.8890 155° Southeast 222 255 8,800 -218 Level FlightAware ADS-B
Sat 01:55:01 AM 37.5640 -121.8720 147° Southeast 207 238 8,600 -750 Descending FlightAware ADS-B
Sat 01:55:16 AM 37.5530 -121.8630 147° Southeast 207 238 8,300 -1,067 Descending FlightAware ADS-B
Sat 01:55:46 AM 37.5290 -121.8420 145° Southeast 205 236 7,800 -800 Descending FlightAware ADS-B
Sat 01:56:01 AM 37.5150 -121.8370 164° South 205 236 7,700  Descending FlightAware ADS-B
Sat 01:56:26 AM 37.4920 -121.8440 194° South 209 241 7,800 109 Climbing FlightAware ADS-B
Sat 01:56:56 AM 37.4690 -121.8640 215° Southwest 213 245 7,800  Level FlightAware ADS-B
Sat 01:57:11 AM 37.4660 -121.8820 258° West 214 246 7,800  Level FlightAware ADS-B
Sat 01:57:21 AM 37.4650 -121.8950 264° West 213 245 7,800 -150 Level FlightAware ADS-B
Sat 01:57:51 AM 37.4630 -121.9320 266° West 212 244 7,700 -800 Descending FlightAware ADS-B
Sat 01:58:21 AM 37.4600 -121.9670 264° West 213 245 7,000 -764 Descending FlightAware ADS-B
Sat 01:58:46 AM 37.4580 -121.9950 265° West 213 245 7,000 -1,200 Level FlightAware ADS-B
Sat 01:58:56 AM 37.4640 -122.0090 298° West 207 238 6,300 -1,800 Descending FlightAware ADS-B
Sat 01:59:26 AM 37.4790 -122.0420 300° West 204 235 5,800 -800 Descending FlightAware ADS-B
Sat 01:59:56 AM 37.4920 -122.0710 299° West 200 230 5,500 -933 Descending FlightAware ADS-B
Sat 02:00:11 AM 37.5000 -122.0870 302° West 201 231 5,100 -1,467 Descending FlightAware ADS-B
Sat 02:00:41 AM 37.5130 -122.1170 299° West 191 220 4,400 -1,091 Descending FlightAware ADS-B
Sat 02:01:06 AM 37.5210 -122.1370 297° West 175 201 4,100 -1,029 Descending FlightAware ADS-B
Sat 02:01:16 AM 37.5250 -122.1470 297° West 173 199 3,800 -1,350 Descending FlightAware ADS-B
Sat 02:01:46 AM 37.5360 -122.1740 297° West 167 192 3,200 -1,200 Descending FlightAware ADS-B
Sat 02:02:01 AM 37.5410 -122.1860 298° West 163 188 2,900 -1,200 Descending FlightAware ADS-B
Sat 02:02:31 AM 37.5520 -122.2120 298° West 161 185 2,300 -1,067 Descending FlightAware ADS-B
Sat 02:02:46 AM 37.5580 -122.2240 302° West 160 184 2,100 -300 Descending FlightAware ADS-B
Sat 02:03:11 AM 37.5660 -122.2430 298° West 160 184 2,100  Level FlightAware ADS-B

Login

Don't have an account? Register now (free) for customized features, flight alerts, and more!